Alleene, Arkansas
Current Conditions -  °F | °C
As of 9:53 PM on Thursday 27 Nov 2014 (Local Time) from KDEQ Reporting Station
Clear Clear  
Wind Chill: 33°   Ceiling: Unl
Heat Index: 33°   Visibility: 9mi
Dew Point: 31°   Wind: 3mph
Humidity: 92%   Direction: 90°E
Pressure: 30.42"   Gusts: NA
Location:  33.77°N, 94.26°W
Report Text: KDEQ 280353Z AUTO 09003KT 9SM CLR 01/M01 A3042 RMK AO2 SLP302 T00061006
Loading
Personal Weather Stations






























Interactive Weather Map New forecast layout! Learn more

10-Day Weather Forecast

Advertisements
Track Severe Weather on mobile